sensor_id;sensor_type;location;lat;lon;timestamp;temperature;humidity
21037;DHT22;10677;50.942;4.028;2023-05-07T00:02:06;18.10;99.90
21037;DHT22;10677;50.942;4.028;2023-05-07T00:04:33;18.00;99.90
21037;DHT22;10677;50.942;4.028;2023-05-07T00:07:03;17.90;99.90
21037;DHT22;10677;50.942;4.028;2023-05-07T00:09:29;17.80;99.90
21037;DHT22;10677;50.942;4.028;2023-05-07T00:11:54;17.80;99.90
21037;DHT22;10677;50.942;4.028;2023-05-07T00:14:20;17.80;99.90
21037;DHT22;10677;50.942;4.028;2023-05-07T00:16:46;17.80;99.90
21037;DHT22;10677;50.942;4.028;2023-05-07T00:19:12;17.70;99.90
21037;DHT22;10677;50.942;4.028;2023-05-07T00:21:37;17.60;99.90
21037;DHT22;10677;50.942;4.028;2023-05-07T00:24:03;17.80;99.90
21037;DHT22;10677;50.942;4.028;2023-05-07T00:26:29;17.80;99.90
21037;DHT22;10677;50.942;4.028;2023-05-07T00:28:55;17.80;99.90
21037;DHT22;10677;50.942;4.028;2023-05-07T00:31:21;17.80;99.90
21037;DHT22;10677;50.942;4.028;2023-05-07T00:33:46;17.70;99.90
21037;DHT22;10677;50.942;4.028;2023-05-07T00:36:12;17.80;99.90
21037;DHT22;10677;50.942;4.028;2023-05-07T00:38:37;17.60;99.90
21037;DHT22;10677;50.942;4.028;2023-05-07T00:41:03;17.70;99.90
21037;DHT22;10677;50.942;4.028;2023-05-07T00:43:29;17.70;99.90
21037;DHT22;10677;50.942;4.028;2023-05-07T00:45:55;17.80;99.90
21037;DHT22;10677;50.942;4.028;2023-05-07T00:48:21;17.70;99.90
21037;DHT22;10677;50.942;4.028;2023-05-07T00:50:47;17.70;99.90
21037;DHT22;10677;50.942;4.028;2023-05-07T00:53:13;17.60;99.90
21037;DHT22;10677;50.942;4.028;2023-05-07T00:55:39;17.60;99.90
21037;DHT22;10677;50.942;4.028;2023-05-07T00:58:07;17.50;99.90
21037;DHT22;10677;50.942;4.028;2023-05-07T01:00:33;17.50;99.90
21037;DHT22;10677;50.942;4.028;2023-05-07T01:02:59;17.50;99.90
21037;DHT22;10677;50.942;4.028;2023-05-07T01:05:26;17.40;99.90
21037;DHT22;10677;50.942;4.028;2023-05-07T01:07:53;17.40;99.90
21037;DHT22;10677;50.942;4.028;2023-05-07T01:10:20;17.40;99.90
21037;DHT22;10677;50.942;4.028;2023-05-07T01:12:46;17.40;99.90
21037;DHT22;10677;50.942;4.028;2023-05-07T01:15:14;17.50;99.90
21037;DHT22;10677;50.942;4.028;2023-05-07T01:17:41;17.50;99.90
21037;DHT22;10677;50.942;4.028;2023-05-07T01:20:07;17.50;99.90
21037;DHT22;10677;50.942;4.028;2023-05-07T01:22:38;17.50;99.90
21037;DHT22;10677;50.942;4.028;2023-05-07T01:25:05;17.40;99.90
21037;DHT22;10677;50.942;4.028;2023-05-07T01:27:31;17.50;99.90
21037;DHT22;10677;50.942;4.028;2023-05-07T01:29:58;17.50;99.90
21037;DHT22;10677;50.942;4.028;2023-05-07T01:32:51;17.50;99.90
21037;DHT22;10677;50.942;4.028;2023-05-07T01:35:22;17.50;99.90
21037;DHT22;10677;50.942;4.028;2023-05-07T01:37:50;17.60;99.90
21037;DHT22;10677;50.942;4.028;2023-05-07T01:40:16;17.50;99.90
21037;DHT22;10677;50.942;4.028;2023-05-07T01:42:43;17.40;99.90
21037;DHT22;10677;50.942;4.028;2023-05-07T01:45:09;17.50;99.90
21037;DHT22;10677;50.942;4.028;2023-05-07T01:47:36;17.40;99.90
21037;DHT22;10677;50.942;4.028;2023-05-07T01:50:05;17.50;99.90
21037;DHT22;10677;50.942;4.028;2023-05-07T01:52:31;17.50;99.90
21037;DHT22;10677;50.942;4.028;2023-05-07T01:54:57;17.50;99.90
21037;DHT22;10677;50.942;4.028;2023-05-07T01:57:23;17.50;99.90
21037;DHT22;10677;50.942;4.028;2023-05-07T01:59:48;17.50;99.90
21037;DHT22;10677;50.942;4.028;2023-05-07T02:02:14;17.50;99.90
21037;DHT22;10677;50.942;4.028;2023-05-07T02:04:40;17.50;99.90
21037;DHT22;10677;50.942;4.028;2023-05-07T02:07:06;17.60;99.90
21037;DHT22;10677;50.942;4.028;2023-05-07T02:09:33;17.50;99.90
21037;DHT22;10677;50.942;4.028;2023-05-07T02:11:58;17.50;99.90
21037;DHT22;10677;50.942;4.028;2023-05-07T02:14:24;17.50;99.90
21037;DHT22;10677;50.942;4.028;2023-05-07T02:16:51;17.50;99.90
21037;DHT22;10677;50.942;4.028;2023-05-07T02:19:17;17.50;99.90
21037;DHT22;10677;50.942;4.028;2023-05-07T02:21:43;17.30;99.90
21037;DHT22;10677;50.942;4.028;2023-05-07T02:24:09;17.30;99.90
21037;DHT22;10677;50.942;4.028;2023-05-07T02:26:34;17.30;99.90
21037;DHT22;10677;50.942;4.028;2023-05-07T02:29:00;17.40;99.90
21037;DHT22;10677;50.942;4.028;2023-05-07T02:31:26;17.40;99.90
21037;DHT22;10677;50.942;4.028;2023-05-07T02:33:51;17.30;99.90
21037;DHT22;10677;50.942;4.028;2023-05-07T02:36:17;17.30;99.90
21037;DHT22;10677;50.942;4.028;2023-05-07T02:38:43;17.30;99.90
21037;DHT22;10677;50.942;4.028;2023-05-07T02:41:08;17.30;99.90
21037;DHT22;10677;50.942;4.028;2023-05-07T02:43:34;17.30;99.90
21037;DHT22;10677;50.942;4.028;2023-05-07T02:46:08;17.30;99.90
21037;DHT22;10677;50.942;4.028;2023-05-07T02:48:34;17.30;99.90
21037;DHT22;10677;50.942;4.028;2023-05-07T02:51:00;17.30;99.90
21037;DHT22;10677;50.942;4.028;2023-05-07T02:53:26;17.30;99.90
21037;DHT22;10677;50.942;4.028;2023-05-07T02:55:59;17.40;99.90
21037;DHT22;10677;50.942;4.028;2023-05-07T02:58:25;17.50;99.90
21037;DHT22;10677;50.942;4.028;2023-05-07T03:00:52;17.50;99.90
21037;DHT22;10677;50.942;4.028;2023-05-07T03:03:17;17.40;99.90
21037;DHT22;10677;50.942;4.028;2023-05-07T03:05:43;17.40;99.90
21037;DHT22;10677;50.942;4.028;2023-05-07T03:08:09;17.40;99.90
21037;DHT22;10677;50.942;4.028;2023-05-07T03:10:36;17.30;99.90
21037;DHT22;10677;50.942;4.028;2023-05-07T03:13:02;17.20;99.90
21037;DHT22;10677;50.942;4.028;2023-05-07T03:15:28;17.10;99.90
21037;DHT22;10677;50.942;4.028;2023-05-07T03:17:53;17.10;99.90
21037;DHT22;10677;50.942;4.028;2023-05-07T03:20:19;17.00;99.90
21037;DHT22;10677;50.942;4.028;2023-05-07T03:22:45;17.00;99.90
21037;DHT22;10677;50.942;4.028;2023-05-07T03:25:10;17.00;99.90
21037;DHT22;10677;50.942;4.028;2023-05-07T03:27:36;17.00;99.90
21037;DHT22;10677;50.942;4.028;2023-05-07T03:30:02;16.90;99.90
21037;DHT22;10677;50.942;4.028;2023-05-07T03:32:28;16.90;99.90
21037;DHT22;10677;50.942;4.028;2023-05-07T03:34:54;16.90;99.90
21037;DHT22;10677;50.942;4.028;2023-05-07T03:37:19;16.90;99.90
21037;DHT22;10677;50.942;4.028;2023-05-07T03:39:45;16.90;99.90
21037;DHT22;10677;50.942;4.028;2023-05-07T03:42:11;17.00;99.90
21037;DHT22;10677;50.942;4.028;2023-05-07T03:44:36;17.00;99.90
21037;DHT22;10677;50.942;4.028;2023-05-07T03:47:03;17.00;99.90
21037;DHT22;10677;50.942;4.028;2023-05-07T03:49:29;16.90;99.90
21037;DHT22;10677;50.942;4.028;2023-05-07T03:51:55;17.00;99.90
21037;DHT22;10677;50.942;4.028;2023-05-07T03:54:21;17.00;99.90
21037;DHT22;10677;50.942;4.028;2023-05-07T03:56:46;17.10;99.90
21037;DHT22;10677;50.942;4.028;2023-05-07T03:59:15;17.10;99.90
21037;DHT22;10677;50.942;4.028;2023-05-07T04:01:41;17.10;99.90
21037;DHT22;10677;50.942;4.028;2023-05-07T04:04:06;17.20;99.90
21037;DHT22;10677;50.942;4.028;2023-05-07T04:06:32;17.10;99.90
21037;DHT22;10677;50.942;4.028;2023-05-07T04:08:58;17.10;99.90
21037;DHT22;10677;50.942;4.028;2023-05-07T04:11:24;17.20;99.90
21037;DHT22;10677;50.942;4.028;2023-05-07T04:13:50;17.20;99.90
21037;DHT22;10677;50.942;4.028;2023-05-07T04:16:15;17.20;99.90
21037;DHT22;10677;50.942;4.028;2023-05-07T04:18:41;17.10;99.90
21037;DHT22;10677;50.942;4.028;2023-05-07T04:21:18;17.10;99.90
21037;DHT22;10677;50.942;4.028;2023-05-07T04:23:44;17.20;99.90
21037;DHT22;10677;50.942;4.028;2023-05-07T04:26:09;17.20;99.90
21037;DHT22;10677;50.942;4.028;2023-05-07T04:28:35;17.20;99.90
21037;DHT22;10677;50.942;4.028;2023-05-07T04:31:01;17.20;99.90
21037;DHT22;10677;50.942;4.028;2023-05-07T04:33:27;17.20;99.90
21037;DHT22;10677;50.942;4.028;2023-05-07T04:35:53;17.20;99.90
21037;DHT22;10677;50.942;4.028;2023-05-07T04:38:18;17.20;99.90
21037;DHT22;10677;50.942;4.028;2023-05-07T04:40:44;17.20;99.90
21037;DHT22;10677;50.942;4.028;2023-05-07T04:43:10;17.20;99.90
21037;DHT22;10677;50.942;4.028;2023-05-07T04:45:36;17.30;99.90
21037;DHT22;10677;50.942;4.028;2023-05-07T04:48:02;17.40;99.90
21037;DHT22;10677;50.942;4.028;2023-05-07T04:50:28;17.50;99.90
21037;DHT22;10677;50.942;4.028;2023-05-07T04:52:53;17.50;99.90
21037;DHT22;10677;50.942;4.028;2023-05-07T04:55:19;17.60;99.90
21037;DHT22;10677;50.942;4.028;2023-05-07T04:57:45;17.60;99.90
21037;DHT22;10677;50.942;4.028;2023-05-07T05:00:11;17.70;99.90
21037;DHT22;10677;50.942;4.028;2023-05-07T05:02:40;17.60;99.90
21037;DHT22;10677;50.942;4.028;2023-05-07T05:05:06;17.70;99.90
21037;DHT22;10677;50.942;4.028;2023-05-07T05:07:32;17.80;99.90
21037;DHT22;10677;50.942;4.028;2023-05-07T05:09:58;17.80;99.90
21037;DHT22;10677;50.942;4.028;2023-05-07T05:12:24;17.90;99.90
21037;DHT22;10677;50.942;4.028;2023-05-07T05:14:49;17.80;99.90
21037;DHT22;10677;50.942;4.028;2023-05-07T05:17:15;17.90;99.90
21037;DHT22;10677;50.942;4.028;2023-05-07T05:19:41;17.80;99.90
21037;DHT22;10677;50.942;4.028;2023-05-07T05:22:06;17.80;99.90
21037;DHT22;10677;50.942;4.028;2023-05-07T05:24:32;17.80;99.90
21037;DHT22;10677;50.942;4.028;2023-05-07T05:26:59;17.70;99.90
21037;DHT22;10677;50.942;4.028;2023-05-07T05:29:28;17.60;99.90
21037;DHT22;10677;50.942;4.028;2023-05-07T05:31:54;17.60;99.90
21037;DHT22;10677;50.942;4.028;2023-05-07T05:34:19;17.60;99.90
21037;DHT22;10677;50.942;4.028;2023-05-07T05:36:45;17.40;99.90
21037;DHT22;10677;50.942;4.028;2023-05-07T05:39:11;17.40;99.90
21037;DHT22;10677;50.942;4.028;2023-05-07T05:41:36;17.40;99.90
21037;DHT22;10677;50.942;4.028;2023-05-07T05:44:02;17.50;99.90
21037;DHT22;10677;50.942;4.028;2023-05-07T05:46:29;17.60;99.90
21037;DHT22;10677;50.942;4.028;2023-05-07T05:48:55;17.60;99.90
21037;DHT22;10677;50.942;4.028;2023-05-07T05:51:21;17.60;99.90
21037;DHT22;10677;50.942;4.028;2023-05-07T05:53:47;17.60;99.90
21037;DHT22;10677;50.942;4.028;2023-05-07T05:56:14;17.60;99.90
21037;DHT22;10677;50.942;4.028;2023-05-07T05:58:40;17.60;99.90
21037;DHT22;10677;50.942;4.028;2023-05-07T06:01:06;17.60;99.90
21037;DHT22;10677;50.942;4.028;2023-05-07T06:03:32;17.60;99.90
21037;DHT22;10677;50.942;4.028;2023-05-07T06:05:58;17.60;99.90
21037;DHT22;10677;50.942;4.028;2023-05-07T06:08:23;17.60;99.90
21037;DHT22;10677;50.942;4.028;2023-05-07T06:10:49;17.60;99.90
21037;DHT22;10677;50.942;4.028;2023-05-07T06:13:15;17.50;99.90
21037;DHT22;10677;50.942;4.028;2023-05-07T06:15:41;17.50;99.90
21037;DHT22;10677;50.942;4.028;2023-05-07T06:18:06;17.50;99.90
21037;DHT22;10677;50.942;4.028;2023-05-07T06:20:32;17.40;99.90
21037;DHT22;10677;50.942;4.028;2023-05-07T06:22:58;17.30;99.90
21037;DHT22;10677;50.942;4.028;2023-05-07T06:25:23;17.30;99.90
21037;DHT22;10677;50.942;4.028;2023-05-07T06:27:49;17.20;99.90
21037;DHT22;10677;50.942;4.028;2023-05-07T06:30:15;17.00;99.90
21037;DHT22;10677;50.942;4.028;2023-05-07T06:32:41;16.90;99.90
21037;DHT22;10677;50.942;4.028;2023-05-07T06:35:06;16.80;99.90
21037;DHT22;10677;50.942;4.028;2023-05-07T06:37:32;16.80;99.90
21037;DHT22;10677;50.942;4.028;2023-05-07T06:39:58;16.80;99.90
21037;DHT22;10677;50.942;4.028;2023-05-07T06:42:23;16.80;99.90
21037;DHT22;10677;50.942;4.028;2023-05-07T06:44:49;16.70;99.90
21037;DHT22;10677;50.942;4.028;2023-05-07T06:47:15;16.80;99.90
21037;DHT22;10677;50.942;4.028;2023-05-07T06:49:41;16.90;99.90
21037;DHT22;10677;50.942;4.028;2023-05-07T06:52:06;17.00;99.90
21037;DHT22;10677;50.942;4.028;2023-05-07T06:54:32;16.80;99.90
21037;DHT22;10677;50.942;4.028;2023-05-07T06:56:58;16.90;99.90
21037;DHT22;10677;50.942;4.028;2023-05-07T06:59:23;17.00;99.90
21037;DHT22;10677;50.942;4.028;2023-05-07T07:01:49;17.10;99.90
21037;DHT22;10677;50.942;4.028;2023-05-07T07:04:15;17.10;99.90
21037;DHT22;10677;50.942;4.028;2023-05-07T07:06:40;17.20;99.90
21037;DHT22;10677;50.942;4.028;2023-05-07T07:09:06;17.30;99.90
21037;DHT22;10677;50.942;4.028;2023-05-07T07:11:32;17.30;99.90
21037;DHT22;10677;50.942;4.028;2023-05-07T07:13:59;17.30;99.90
21037;DHT22;10677;50.942;4.028;2023-05-07T07:16:24;17.30;99.90
21037;DHT22;10677;50.942;4.028;2023-05-07T07:18:51;17.30;99.90
21037;DHT22;10677;50.942;4.028;2023-05-07T07:21:16;17.30;99.90
21037;DHT22;10677;50.942;4.028;2023-05-07T07:23:42;17.30;99.90
21037;DHT22;10677;50.942;4.028;2023-05-07T07:26:08;17.30;99.90
21037;DHT22;10677;50.942;4.028;2023-05-07T07:28:34;17.40;99.90
21037;DHT22;10677;50.942;4.028;2023-05-07T07:30:59;17.40;99.90
21037;DHT22;10677;50.942;4.028;2023-05-07T07:33:25;17.50;99.90
21037;DHT22;10677;50.942;4.028;2023-05-07T07:35:50;17.60;99.90
21037;DHT22;10677;50.942;4.028;2023-05-07T07:38:16;17.70;99.90
21037;DHT22;10677;50.942;4.028;2023-05-07T07:40:42;17.70;99.90
21037;DHT22;10677;50.942;4.028;2023-05-07T07:43:09;17.70;99.90
21037;DHT22;10677;50.942;4.028;2023-05-07T07:45:35;17.70;99.90
21037;DHT22;10677;50.942;4.028;2023-05-07T07:48:00;17.70;99.90
21037;DHT22;10677;50.942;4.028;2023-05-07T07:50:26;17.70;99.90
21037;DHT22;10677;50.942;4.028;2023-05-07T07:52:52;17.70;99.90
21037;DHT22;10677;50.942;4.028;2023-05-07T07:55:22;17.60;99.90
21037;DHT22;10677;50.942;4.028;2023-05-07T07:57:49;17.50;99.90
21037;DHT22;10677;50.942;4.028;2023-05-07T08:00:15;17.40;99.90
21037;DHT22;10677;50.942;4.028;2023-05-07T08:02:41;17.50;99.90
21037;DHT22;10677;50.942;4.028;2023-05-07T08:05:07;17.60;99.90
21037;DHT22;10677;50.942;4.028;2023-05-07T08:07:33;17.60;99.90
21037;DHT22;10677;50.942;4.028;2023-05-07T08:09:59;17.70;99.90
21037;DHT22;10677;50.942;4.028;2023-05-07T08:12:24;17.80;99.90
21037;DHT22;10677;50.942;4.028;2023-05-07T08:14:50;17.90;99.90
21037;DHT22;10677;50.942;4.028;2023-05-07T08:17:16;17.80;99.90
21037;DHT22;10677;50.942;4.028;2023-05-07T08:19:42;17.80;99.90
21037;DHT22;10677;50.942;4.028;2023-05-07T08:22:09;17.80;99.90
21037;DHT22;10677;50.942;4.028;2023-05-07T08:24:36;17.90;99.90
21037;DHT22;10677;50.942;4.028;2023-05-07T08:27:02;17.90;99.90
21037;DHT22;10677;50.942;4.028;2023-05-07T08:29:27;17.80;99.90
21037;DHT22;10677;50.942;4.028;2023-05-07T08:31:53;17.80;99.90
21037;DHT22;10677;50.942;4.028;2023-05-07T08:34:19;17.80;99.90
21037;DHT22;10677;50.942;4.028;2023-05-07T08:36:45;17.80;99.90
21037;DHT22;10677;50.942;4.028;2023-05-07T08:39:14;17.70;99.90
21037;DHT22;10677;50.942;4.028;2023-05-07T08:41:40;17.70;99.90
21037;DHT22;10677;50.942;4.028;2023-05-07T08:44:12;17.60;99.90
21037;DHT22;10677;50.942;4.028;2023-05-07T08:46:39;17.60;99.90
21037;DHT22;10677;50.942;4.028;2023-05-07T08:49:05;17.60;99.90
21037;DHT22;10677;50.942;4.028;2023-05-07T08:51:31;17.60;99.90
21037;DHT22;10677;50.942;4.028;2023-05-07T08:53:58;17.70;99.90
21037;DHT22;10677;50.942;4.028;2023-05-07T08:56:24;17.70;99.90
21037;DHT22;10677;50.942;4.028;2023-05-07T08:58:50;17.80;99.90
21037;DHT22;10677;50.942;4.028;2023-05-07T09:01:17;17.90;99.90
21037;DHT22;10677;50.942;4.028;2023-05-07T09:03:46;17.90;99.90
21037;DHT22;10677;50.942;4.028;2023-05-07T09:06:12;18.00;99.90
21037;DHT22;10677;50.942;4.028;2023-05-07T09:08:38;18.00;99.90
21037;DHT22;10677;50.942;4.028;2023-05-07T09:11:03;17.90;99.90
21037;DHT22;10677;50.942;4.028;2023-05-07T09:13:29;17.90;99.90
21037;DHT22;10677;50.942;4.028;2023-05-07T09:15:56;18.00;99.90
21037;DHT22;10677;50.942;4.028;2023-05-07T09:18:23;18.00;99.90
21037;DHT22;10677;50.942;4.028;2023-05-07T09:20:49;18.00;99.90
21037;DHT22;10677;50.942;4.028;2023-05-07T09:23:16;18.10;99.90
21037;DHT22;10677;50.942;4.028;2023-05-07T09:25:42;18.10;99.90
21037;DHT22;10677;50.942;4.028;2023-05-07T09:28:07;18.10;99.90
21037;DHT22;10677;50.942;4.028;2023-05-07T09:30:35;18.00;99.90
21037;DHT22;10677;50.942;4.028;2023-05-07T09:33:02;18.10;99.90
21037;DHT22;10677;50.942;4.028;2023-05-07T09:35:29;18.20;99.90
21037;DHT22;10677;50.942;4.028;2023-05-07T09:37:56;18.20;99.90
21037;DHT22;10677;50.942;4.028;2023-05-07T09:40:23;18.20;99.90
21037;DHT22;10677;50.942;4.028;2023-05-07T09:42:50;18.30;99.90
21037;DHT22;10677;50.942;4.028;2023-05-07T09:45:24;18.30;99.90
21037;DHT22;10677;50.942;4.028;2023-05-07T09:47:56;18.30;99.90
21037;DHT22;10677;50.942;4.028;2023-05-07T09:50:46;18.40;99.90
21037;DHT22;10677;50.942;4.028;2023-05-07T09:53:14;18.40;99.90
21037;DHT22;10677;50.942;4.028;2023-05-07T09:55:41;18.50;99.90
21037;DHT22;10677;50.942;4.028;2023-05-07T09:58:07;18.50;99.90
21037;DHT22;10677;50.942;4.028;2023-05-07T10:00:35;18.40;99.90
21037;DHT22;10677;50.942;4.028;2023-05-07T10:03:01;18.40;99.90
21037;DHT22;10677;50.942;4.028;2023-05-07T10:05:28;18.40;99.90
21037;DHT22;10677;50.942;4.028;2023-05-07T10:07:55;18.40;99.90
21037;DHT22;10677;50.942;4.028;2023-05-07T10:10:22;18.40;99.90
21037;DHT22;10677;50.942;4.028;2023-05-07T10:12:50;18.60;99.90
21037;DHT22;10677;50.942;4.028;2023-05-07T10:15:16;18.70;99.90
21037;DHT22;10677;50.942;4.028;2023-05-07T10:17:42;18.70;99.90
21037;DHT22;10677;50.942;4.028;2023-05-07T10:20:08;18.60;99.90
21037;DHT22;10677;50.942;4.028;2023-05-07T10:22:41;18.60;99.90
21037;DHT22;10677;50.942;4.028;2023-05-07T10:25:21;18.70;99.90
21037;DHT22;10677;50.942;4.028;2023-05-07T10:27:48;18.60;99.90
21037;DHT22;10677;50.942;4.028;2023-05-07T10:32:53;18.70;99.90
21037;DHT22;10677;50.942;4.028;2023-05-07T10:35:23;18.70;99.90
21037;DHT22;10677;50.942;4.028;2023-05-07T10:37:50;18.90;99.90
21037;DHT22;10677;50.942;4.028;2023-05-07T10:40:16;19.00;99.90
21037;DHT22;10677;50.942;4.028;2023-05-07T10:43:03;19.20;99.90
21037;DHT22;10677;50.942;4.028;2023-05-07T10:45:31;19.60;99.90
21037;DHT22;10677;50.942;4.028;2023-05-07T10:48:15;19.70;99.90
21037;DHT22;10677;50.942;4.028;2023-05-07T10:50:44;19.80;99.90
21037;DHT22;10677;50.942;4.028;2023-05-07T10:56:23;19.90;99.90
21037;DHT22;10677;50.942;4.028;2023-05-07T10:58:37;20.00;99.90
21037;DHT22;10677;50.942;4.028;2023-05-07T11:01:03;20.20;99.90
21037;DHT22;10677;50.942;4.028;2023-05-07T11:03:29;20.30;99.90
21037;DHT22;10677;50.942;4.028;2023-05-07T11:06:15;20.50;99.90
21037;DHT22;10677;50.942;4.028;2023-05-07T11:08:56;20.70;99.90
21037;DHT22;10677;50.942;4.028;2023-05-07T11:14:09;20.90;99.90
21037;DHT22;10677;50.942;4.028;2023-05-07T11:16:35;20.90;99.90
21037;DHT22;10677;50.942;4.028;2023-05-07T11:19:03;20.90;99.90
21037;DHT22;10677;50.942;4.028;2023-05-07T11:21:40;20.90;99.90
21037;DHT22;10677;50.942;4.028;2023-05-07T11:24:09;20.80;99.90
21037;DHT22;10677;50.942;4.028;2023-05-07T11:26:49;20.70;99.90
21037;DHT22;10677;50.942;4.028;2023-05-07T11:29:17;20.60;99.90
21037;DHT22;10677;50.942;4.028;2023-05-07T11:31:43;20.60;99.90
21037;DHT22;10677;50.942;4.028;2023-05-07T11:34:09;20.50;99.90
21037;DHT22;10677;50.942;4.028;2023-05-07T11:36:41;20.50;99.90
21037;DHT22;10677;50.942;4.028;2023-05-07T11:39:31;20.70;99.90
21037;DHT22;10677;50.942;4.028;2023-05-07T11:44:42;20.90;99.90
21037;DHT22;10677;50.942;4.028;2023-05-07T11:47:10;20.70;99.90
21037;DHT22;10677;50.942;4.028;2023-05-07T11:49:36;20.70;99.90
21037;DHT22;10677;50.942;4.028;2023-05-07T11:52:02;20.80;99.90
21037;DHT22;10677;50.942;4.028;2023-05-07T11:54:35;20.90;99.90
21037;DHT22;10677;50.942;4.028;2023-05-07T11:57:02;20.60;99.90
21037;DHT22;10677;50.942;4.028;2023-05-07T11:59:27;20.60;99.90
21037;DHT22;10677;50.942;4.028;2023-05-07T12:01:57;20.50;99.90
21037;DHT22;10677;50.942;4.028;2023-05-07T12:04:23;20.60;99.90
21037;DHT22;10677;50.942;4.028;2023-05-07T12:06:48;20.60;99.90
21037;DHT22;10677;50.942;4.028;2023-05-07T12:09:16;20.80;99.90
21037;DHT22;10677;50.942;4.028;2023-05-07T12:11:45;20.80;99.90
21037;DHT22;10677;50.942;4.028;2023-05-07T12:14:11;20.70;99.90
21037;DHT22;10677;50.942;4.028;2023-05-07T12:16:38;20.80;99.90
21037;DHT22;10677;50.942;4.028;2023-05-07T12:19:05;20.70;99.90
21037;DHT22;10677;50.942;4.028;2023-05-07T12:21:33;20.80;99.90
21037;DHT22;10677;50.942;4.028;2023-05-07T12:23:59;20.80;99.90
21037;DHT22;10677;50.942;4.028;2023-05-07T12:26:25;20.60;99.90
21037;DHT22;10677;50.942;4.028;2023-05-07T12:28:51;20.40;99.90
21037;DHT22;10677;50.942;4.028;2023-05-07T12:31:16;20.20;99.90
21037;DHT22;10677;50.942;4.028;2023-05-07T12:33:42;20.10;99.90
21037;DHT22;10677;50.942;4.028;2023-05-07T12:36:08;19.90;99.90
21037;DHT22;10677;50.942;4.028;2023-05-07T12:38:38;19.70;99.90
21037;DHT22;10677;50.942;4.028;2023-05-07T12:41:09;19.70;99.90
21037;DHT22;10677;50.942;4.028;2023-05-07T12:43:35;19.60;99.90
21037;DHT22;10677;50.942;4.028;2023-05-07T12:46:05;19.70;99.90
21037;DHT22;10677;50.942;4.028;2023-05-07T12:48:31;19.80;99.90
21037;DHT22;10677;50.942;4.028;2023-05-07T12:50:58;19.80;99.90
21037;DHT22;10677;50.942;4.028;2023-05-07T12:53:26;19.90;99.90
21037;DHT22;10677;50.942;4.028;2023-05-07T12:55:54;20.00;99.90
21037;DHT22;10677;50.942;4.028;2023-05-07T13:00:54;19.90;99.90
21037;DHT22;10677;50.942;4.028;2023-05-07T13:03:33;19.90;99.90
21037;DHT22;10677;50.942;4.028;2023-05-07T13:06:01;19.80;99.90
21037;DHT22;10677;50.942;4.028;2023-05-07T13:11:03;19.90;99.90
21037;DHT22;10677;50.942;4.028;2023-05-07T13:13:30;20.10;99.90
21037;DHT22;10677;50.942;4.028;2023-05-07T13:15:56;20.30;99.90
21037;DHT22;10677;50.942;4.028;2023-05-07T13:18:23;20.50;99.90
21037;DHT22;10677;50.942;4.028;2023-05-07T13:20:49;20.60;99.90
21037;DHT22;10677;50.942;4.028;2023-05-07T13:23:15;20.80;99.90
21037;DHT22;10677;50.942;4.028;2023-05-07T13:25:41;21.10;99.90
21037;DHT22;10677;50.942;4.028;2023-05-07T13:28:06;21.40;99.90
21037;DHT22;10677;50.942;4.028;2023-05-07T13:30:33;21.90;99.90
21037;DHT22;10677;50.942;4.028;2023-05-07T13:32:58;22.30;99.90
21037;DHT22;10677;50.942;4.028;2023-05-07T13:35:24;22.70;99.90
21037;DHT22;10677;50.942;4.028;2023-05-07T13:37:50;22.90;99.90
21037;DHT22;10677;50.942;4.028;2023-05-07T13:40:17;23.00;99.90
21037;DHT22;10677;50.942;4.028;2023-05-07T13:42:44;23.40;99.90
21037;DHT22;10677;50.942;4.028;2023-05-07T13:45:10;23.60;99.90
21037;DHT22;10677;50.942;4.028;2023-05-07T13:47:36;23.90;99.90
21037;DHT22;10677;50.942;4.028;2023-05-07T13:50:02;24.10;99.90
21037;DHT22;10677;50.942;4.028;2023-05-07T13:52:27;24.10;99.90
21037;DHT22;10677;50.942;4.028;2023-05-07T13:54:53;23.80;99.90
21037;DHT22;10677;50.942;4.028;2023-05-07T13:57:20;23.60;99.90
21037;DHT22;10677;50.942;4.028;2023-05-07T13:59:46;23.50;99.90
21037;DHT22;10677;50.942;4.028;2023-05-07T14:02:11;23.70;99.90
21037;DHT22;10677;50.942;4.028;2023-05-07T14:04:37;23.90;99.90
21037;DHT22;10677;50.942;4.028;2023-05-07T14:07:03;24.10;99.90
21037;DHT22;10677;50.942;4.028;2023-05-07T14:09:29;23.70;99.90
21037;DHT22;10677;50.942;4.028;2023-05-07T14:11:55;23.90;99.90
21037;DHT22;10677;50.942;4.028;2023-05-07T14:14:20;23.30;99.90
21037;DHT22;10677;50.942;4.028;2023-05-07T14:16:46;23.10;99.90
21037;DHT22;10677;50.942;4.028;2023-05-07T14:19:12;23.30;99.90
21037;DHT22;10677;50.942;4.028;2023-05-07T14:21:38;23.40;99.90
21037;DHT22;10677;50.942;4.028;2023-05-07T14:24:05;23.60;99.90
21037;DHT22;10677;50.942;4.028;2023-05-07T14:26:32;23.80;99.90
21037;DHT22;10677;50.942;4.028;2023-05-07T14:28:58;23.80;99.90
21037;DHT22;10677;50.942;4.028;2023-05-07T14:31:24;23.60;99.90
21037;DHT22;10677;50.942;4.028;2023-05-07T14:33:49;23.50;99.90
21037;DHT22;10677;50.942;4.028;2023-05-07T14:36:16;23.60;99.90
21037;DHT22;10677;50.942;4.028;2023-05-07T14:38:43;23.50;99.90
21037;DHT22;10677;50.942;4.028;2023-05-07T14:41:08;23.50;99.90
21037;DHT22;10677;50.942;4.028;2023-05-07T14:43:34;23.60;99.90
21037;DHT22;10677;50.942;4.028;2023-05-07T14:46:00;23.70;99.90
21037;DHT22;10677;50.942;4.028;2023-05-07T14:48:25;23.70;99.90
21037;DHT22;10677;50.942;4.028;2023-05-07T14:50:51;23.70;99.90
21037;DHT22;10677;50.942;4.028;2023-05-07T14:53:17;23.60;99.90
21037;DHT22;10677;50.942;4.028;2023-05-07T14:55:42;23.60;99.90
21037;DHT22;10677;50.942;4.028;2023-05-07T14:58:08;23.60;99.90
21037;DHT22;10677;50.942;4.028;2023-05-07T15:00:34;23.70;99.90
21037;DHT22;10677;50.942;4.028;2023-05-07T15:03:08;23.80;99.90
21037;DHT22;10677;50.942;4.028;2023-05-07T15:05:34;24.10;99.90
21037;DHT22;10677;50.942;4.028;2023-05-07T15:08:00;23.50;99.90
21037;DHT22;10677;50.942;4.028;2023-05-07T15:10:26;23.60;99.90
21037;DHT22;10677;50.942;4.028;2023-05-07T15:12:52;23.90;99.90
21037;DHT22;10677;50.942;4.028;2023-05-07T15:15:18;24.00;99.90
21037;DHT22;10677;50.942;4.028;2023-05-07T15:17:43;23.90;99.90
21037;DHT22;10677;50.942;4.028;2023-05-07T15:20:09;23.90;99.90
21037;DHT22;10677;50.942;4.028;2023-05-07T15:22:35;24.00;99.90
21037;DHT22;10677;50.942;4.028;2023-05-07T15:25:03;24.30;99.90
21037;DHT22;10677;50.942;4.028;2023-05-07T15:27:29;24.30;99.90
21037;DHT22;10677;50.942;4.028;2023-05-07T15:29:56;24.30;99.90
21037;DHT22;10677;50.942;4.028;2023-05-07T15:32:22;24.30;99.90
21037;DHT22;10677;50.942;4.028;2023-05-07T15:34:47;24.10;99.90
21037;DHT22;10677;50.942;4.028;2023-05-07T15:37:13;24.20;99.90
21037;DHT22;10677;50.942;4.028;2023-05-07T15:39:39;24.10;99.90
21037;DHT22;10677;50.942;4.028;2023-05-07T15:42:05;23.80;99.90
21037;DHT22;10677;50.942;4.028;2023-05-07T15:44:30;23.70;99.90